sensor_id;sensor_type;location;lat;lon;timestamp;temperature;humidity
582;DHT22;277;50.074;8.436;2023-12-29T00:01:54;8.80;99.90
582;DHT22;277;50.074;8.436;2023-12-29T00:04:23;8.80;99.90
582;DHT22;277;50.074;8.436;2023-12-29T00:06:51;8.80;99.90
582;DHT22;277;50.074;8.436;2023-12-29T00:09:28;8.70;99.90
582;DHT22;277;50.074;8.436;2023-12-29T00:11:56;8.70;99.90
582;DHT22;277;50.074;8.436;2023-12-29T00:14:24;8.70;99.90
582;DHT22;277;50.074;8.436;2023-12-29T00:16:52;8.60;99.90
582;DHT22;277;50.074;8.436;2023-12-29T00:19:25;8.60;99.90
582;DHT22;277;50.074;8.436;2023-12-29T00:21:53;8.60;99.90
582;DHT22;277;50.074;8.436;2023-12-29T00:24:20;8.50;99.90
582;DHT22;277;50.074;8.436;2023-12-29T00:26:48;8.60;99.90
582;DHT22;277;50.074;8.436;2023-12-29T00:29:16;8.60;99.90
582;DHT22;277;50.074;8.436;2023-12-29T00:31:44;8.50;99.90
582;DHT22;277;50.074;8.436;2023-12-29T00:34:12;8.50;99.90
582;DHT22;277;50.074;8.436;2023-12-29T00:36:41;8.50;99.90
582;DHT22;277;50.074;8.436;2023-12-29T00:39:09;8.50;99.90
582;DHT22;277;50.074;8.436;2023-12-29T00:41:38;8.40;99.90
582;DHT22;277;50.074;8.436;2023-12-29T00:44:07;8.40;99.90
582;DHT22;277;50.074;8.436;2023-12-29T00:46:35;8.50;99.90
582;DHT22;277;50.074;8.436;2023-12-29T00:49:02;8.50;99.90
582;DHT22;277;50.074;8.436;2023-12-29T00:51:30;8.40;99.90
582;DHT22;277;50.074;8.436;2023-12-29T00:53:59;8.40;99.90
582;DHT22;277;50.074;8.436;2023-12-29T00:56:27;8.40;99.90
582;DHT22;277;50.074;8.436;2023-12-29T00:58:55;8.30;99.90
582;DHT22;277;50.074;8.436;2023-12-29T01:01:23;8.30;99.90
582;DHT22;277;50.074;8.436;2023-12-29T01:03:50;8.30;99.90
582;DHT22;277;50.074;8.436;2023-12-29T01:06:21;8.20;99.90
582;DHT22;277;50.074;8.436;2023-12-29T01:08:50;8.20;99.90
582;DHT22;277;50.074;8.436;2023-12-29T01:11:19;8.20;99.90
582;DHT22;277;50.074;8.436;2023-12-29T01:13:47;8.10;99.90
582;DHT22;277;50.074;8.436;2023-12-29T01:16:15;8.10;99.90
582;DHT22;277;50.074;8.436;2023-12-29T01:18:43;8.00;99.90
582;DHT22;277;50.074;8.436;2023-12-29T01:21:11;8.10;99.90
582;DHT22;277;50.074;8.436;2023-12-29T01:23:39;8.00;99.90
582;DHT22;277;50.074;8.436;2023-12-29T01:26:06;8.00;99.90
582;DHT22;277;50.074;8.436;2023-12-29T01:28:36;8.00;99.90
582;DHT22;277;50.074;8.436;2023-12-29T01:31:04;8.00;99.90
582;DHT22;277;50.074;8.436;2023-12-29T01:33:33;8.00;99.90
582;DHT22;277;50.074;8.436;2023-12-29T01:36:01;8.00;99.90
582;DHT22;277;50.074;8.436;2023-12-29T01:38:40;8.00;99.90
582;DHT22;277;50.074;8.436;2023-12-29T01:41:08;8.00;99.90
582;DHT22;277;50.074;8.436;2023-12-29T01:44:02;8.00;99.90
582;DHT22;277;50.074;8.436;2023-12-29T01:46:33;8.00;99.90
582;DHT22;277;50.074;8.436;2023-12-29T01:49:02;8.10;99.90
582;DHT22;277;50.074;8.436;2023-12-29T01:51:29;8.10;99.90
582;DHT22;277;50.074;8.436;2023-12-29T01:53:58;8.10;99.90
582;DHT22;277;50.074;8.436;2023-12-29T01:56:26;8.10;99.90
582;DHT22;277;50.074;8.436;2023-12-29T01:58:55;8.10;99.90
582;DHT22;277;50.074;8.436;2023-12-29T02:01:36;8.20;99.90
582;DHT22;277;50.074;8.436;2023-12-29T02:04:06;8.20;99.90
582;DHT22;277;50.074;8.436;2023-12-29T02:06:34;8.20;99.90
582;DHT22;277;50.074;8.436;2023-12-29T02:09:02;8.20;99.90
582;DHT22;277;50.074;8.436;2023-12-29T02:11:31;8.30;99.90
582;DHT22;277;50.074;8.436;2023-12-29T02:14:00;8.30;99.90
582;DHT22;277;50.074;8.436;2023-12-29T02:16:30;8.30;99.90
582;DHT22;277;50.074;8.436;2023-12-29T02:19:01;8.40;99.90
582;DHT22;277;50.074;8.436;2023-12-29T02:21:31;8.40;99.90
582;DHT22;277;50.074;8.436;2023-12-29T02:23:59;8.40;99.90
582;DHT22;277;50.074;8.436;2023-12-29T02:26:29;8.40;99.90
582;DHT22;277;50.074;8.436;2023-12-29T02:28:59;8.40;99.90
582;DHT22;277;50.074;8.436;2023-12-29T02:31:28;8.40;99.90
582;DHT22;277;50.074;8.436;2023-12-29T02:33:58;8.40;99.90
582;DHT22;277;50.074;8.436;2023-12-29T02:36:28;8.40;99.90
582;DHT22;277;50.074;8.436;2023-12-29T02:38:56;8.40;99.90
582;DHT22;277;50.074;8.436;2023-12-29T02:41:24;8.40;99.90
582;DHT22;277;50.074;8.436;2023-12-29T02:43:53;8.40;99.90
582;DHT22;277;50.074;8.436;2023-12-29T02:46:21;8.40;99.90
582;DHT22;277;50.074;8.436;2023-12-29T02:48:49;8.40;99.90
582;DHT22;277;50.074;8.436;2023-12-29T02:51:17;8.30;99.90
582;DHT22;277;50.074;8.436;2023-12-29T02:53:44;8.30;99.90
582;DHT22;277;50.074;8.436;2023-12-29T02:56:11;8.30;99.90
582;DHT22;277;50.074;8.436;2023-12-29T02:58:39;8.30;99.90
582;DHT22;277;50.074;8.436;2023-12-29T03:01:08;8.30;99.90
582;DHT22;277;50.074;8.436;2023-12-29T03:03:37;8.30;99.90
582;DHT22;277;50.074;8.436;2023-12-29T03:06:06;8.30;99.90
582;DHT22;277;50.074;8.436;2023-12-29T03:08:34;8.30;99.90
582;DHT22;277;50.074;8.436;2023-12-29T03:11:02;8.30;99.90
582;DHT22;277;50.074;8.436;2023-12-29T03:13:30;8.20;99.90
582;DHT22;277;50.074;8.436;2023-12-29T03:15:57;8.30;99.90
582;DHT22;277;50.074;8.436;2023-12-29T03:18:26;8.20;99.90
582;DHT22;277;50.074;8.436;2023-12-29T03:20:54;8.30;99.90
582;DHT22;277;50.074;8.436;2023-12-29T03:23:22;8.30;99.90
582;DHT22;277;50.074;8.436;2023-12-29T03:25:50;8.30;99.90
582;DHT22;277;50.074;8.436;2023-12-29T03:28:17;8.40;99.90
582;DHT22;277;50.074;8.436;2023-12-29T03:30:45;8.40;99.90
582;DHT22;277;50.074;8.436;2023-12-29T03:33:13;8.40;99.90
582;DHT22;277;50.074;8.436;2023-12-29T03:35:43;8.40;99.90
582;DHT22;277;50.074;8.436;2023-12-29T03:38:10;8.40;99.90
582;DHT22;277;50.074;8.436;2023-12-29T03:40:38;8.40;99.90
582;DHT22;277;50.074;8.436;2023-12-29T03:43:06;8.40;99.90
582;DHT22;277;50.074;8.436;2023-12-29T03:45:34;8.40;99.90
582;DHT22;277;50.074;8.436;2023-12-29T03:48:02;8.40;99.90
582;DHT22;277;50.074;8.436;2023-12-29T03:50:30;8.40;99.90
582;DHT22;277;50.074;8.436;2023-12-29T03:52:59;8.40;99.90
582;DHT22;277;50.074;8.436;2023-12-29T03:55:27;8.40;99.90
582;DHT22;277;50.074;8.436;2023-12-29T03:57:54;8.40;99.90
582;DHT22;277;50.074;8.436;2023-12-29T04:00:23;8.40;99.90
582;DHT22;277;50.074;8.436;2023-12-29T04:02:51;8.40;99.90
582;DHT22;277;50.074;8.436;2023-12-29T04:05:19;8.40;99.90
582;DHT22;277;50.074;8.436;2023-12-29T04:07:47;8.40;99.90
582;DHT22;277;50.074;8.436;2023-12-29T04:10:16;8.40;99.90
582;DHT22;277;50.074;8.436;2023-12-29T04:12:43;8.30;99.90
582;DHT22;277;50.074;8.436;2023-12-29T04:15:12;8.30;99.90
582;DHT22;277;50.074;8.436;2023-12-29T04:17:40;8.30;99.90
582;DHT22;277;50.074;8.436;2023-12-29T04:20:08;8.30;99.90
582;DHT22;277;50.074;8.436;2023-12-29T04:22:35;8.20;99.90
582;DHT22;277;50.074;8.436;2023-12-29T04:25:03;8.30;99.90
582;DHT22;277;50.074;8.436;2023-12-29T04:27:33;8.30;99.90
582;DHT22;277;50.074;8.436;2023-12-29T04:30:01;8.20;99.90
582;DHT22;277;50.074;8.436;2023-12-29T04:32:29;8.20;99.90
582;DHT22;277;50.074;8.436;2023-12-29T04:34:57;8.20;99.90
582;DHT22;277;50.074;8.436;2023-12-29T04:37:25;8.20;99.90
582;DHT22;277;50.074;8.436;2023-12-29T04:39:53;8.30;99.90
582;DHT22;277;50.074;8.436;2023-12-29T04:42:20;8.20;99.90
582;DHT22;277;50.074;8.436;2023-12-29T04:44:49;8.30;99.90
582;DHT22;277;50.074;8.436;2023-12-29T04:47:17;8.30;99.90
582;DHT22;277;50.074;8.436;2023-12-29T04:49:45;8.30;99.90
582;DHT22;277;50.074;8.436;2023-12-29T04:52:13;8.40;99.90
582;DHT22;277;50.074;8.436;2023-12-29T04:54:41;8.40;99.90
582;DHT22;277;50.074;8.436;2023-12-29T04:57:09;8.40;99.90
582;DHT22;277;50.074;8.436;2023-12-29T04:59:36;8.50;99.90
582;DHT22;277;50.074;8.436;2023-12-29T05:02:05;8.60;99.90
582;DHT22;277;50.074;8.436;2023-12-29T05:04:33;8.60;99.90
582;DHT22;277;50.074;8.436;2023-12-29T05:07:01;8.60;99.90
582;DHT22;277;50.074;8.436;2023-12-29T05:09:29;8.60;99.90
582;DHT22;277;50.074;8.436;2023-12-29T05:11:57;8.60;99.90
582;DHT22;277;50.074;8.436;2023-12-29T05:14:25;8.60;99.90
582;DHT22;277;50.074;8.436;2023-12-29T05:16:52;8.60;99.90
582;DHT22;277;50.074;8.436;2023-12-29T05:19:22;8.60;99.90
582;DHT22;277;50.074;8.436;2023-12-29T05:21:49;8.60;99.90
582;DHT22;277;50.074;8.436;2023-12-29T05:24:18;8.60;99.90
582;DHT22;277;50.074;8.436;2023-12-29T05:26:46;8.60;99.90
582;DHT22;277;50.074;8.436;2023-12-29T05:29:14;8.60;99.90
582;DHT22;277;50.074;8.436;2023-12-29T05:31:42;8.60;99.90
582;DHT22;277;50.074;8.436;2023-12-29T05:34:09;8.60;99.90
582;DHT22;277;50.074;8.436;2023-12-29T05:36:39;8.70;99.90
582;DHT22;277;50.074;8.436;2023-12-29T05:39:07;8.60;99.90
582;DHT22;277;50.074;8.436;2023-12-29T05:41:35;8.60;99.90
582;DHT22;277;50.074;8.436;2023-12-29T05:44:03;8.60;99.90
582;DHT22;277;50.074;8.436;2023-12-29T05:46:30;8.60;99.90
582;DHT22;277;50.074;8.436;2023-12-29T05:48:58;8.60;99.90
582;DHT22;277;50.074;8.436;2023-12-29T05:51:26;8.70;99.90
582;DHT22;277;50.074;8.436;2023-12-29T05:53:55;8.70;99.90
582;DHT22;277;50.074;8.436;2023-12-29T05:56:23;8.60;99.90
582;DHT22;277;50.074;8.436;2023-12-29T05:58:52;8.70;99.90
582;DHT22;277;50.074;8.436;2023-12-29T06:01:19;8.80;99.90
582;DHT22;277;50.074;8.436;2023-12-29T06:03:47;8.80;99.90
582;DHT22;277;50.074;8.436;2023-12-29T06:06:15;8.80;99.90
582;DHT22;277;50.074;8.436;2023-12-29T06:08:43;8.80;99.90
582;DHT22;277;50.074;8.436;2023-12-29T06:11:15;8.80;99.90
582;DHT22;277;50.074;8.436;2023-12-29T06:13:43;8.90;99.90
582;DHT22;277;50.074;8.436;2023-12-29T06:16:16;8.90;99.90
582;DHT22;277;50.074;8.436;2023-12-29T06:18:44;8.90;99.90
582;DHT22;277;50.074;8.436;2023-12-29T06:21:12;8.90;99.90
582;DHT22;277;50.074;8.436;2023-12-29T06:23:40;9.00;99.90
582;DHT22;277;50.074;8.436;2023-12-29T06:26:13;8.90;99.90
582;DHT22;277;50.074;8.436;2023-12-29T06:28:42;9.00;99.90
582;DHT22;277;50.074;8.436;2023-12-29T06:31:10;9.00;99.90
582;DHT22;277;50.074;8.436;2023-12-29T06:33:40;9.00;99.90
582;DHT22;277;50.074;8.436;2023-12-29T06:36:08;9.00;99.90
582;DHT22;277;50.074;8.436;2023-12-29T06:38:36;9.10;99.90
582;DHT22;277;50.074;8.436;2023-12-29T06:41:04;9.10;99.90
582;DHT22;277;50.074;8.436;2023-12-29T06:43:32;9.10;99.90
582;DHT22;277;50.074;8.436;2023-12-29T06:46:01;9.20;99.90
582;DHT22;277;50.074;8.436;2023-12-29T06:48:29;9.20;99.90
582;DHT22;277;50.074;8.436;2023-12-29T06:50:57;9.30;99.90
582;DHT22;277;50.074;8.436;2023-12-29T06:53:25;9.30;99.90
582;DHT22;277;50.074;8.436;2023-12-29T06:55:52;9.40;99.90
582;DHT22;277;50.074;8.436;2023-12-29T06:58:20;9.40;99.90
582;DHT22;277;50.074;8.436;2023-12-29T07:00:48;9.40;99.90
582;DHT22;277;50.074;8.436;2023-12-29T07:03:17;9.40;99.90
582;DHT22;277;50.074;8.436;2023-12-29T07:05:45;9.40;99.90
582;DHT22;277;50.074;8.436;2023-12-29T07:08:13;9.50;99.90
582;DHT22;277;50.074;8.436;2023-12-29T07:10:41;9.50;99.90
582;DHT22;277;50.074;8.436;2023-12-29T07:13:09;9.40;99.90
582;DHT22;277;50.074;8.436;2023-12-29T07:15:37;9.40;99.90
582;DHT22;277;50.074;8.436;2023-12-29T07:18:05;9.50;99.90
582;DHT22;277;50.074;8.436;2023-12-29T07:20:35;9.50;99.90
582;DHT22;277;50.074;8.436;2023-12-29T07:23:02;9.50;99.90
582;DHT22;277;50.074;8.436;2023-12-29T07:25:30;9.50;99.90
582;DHT22;277;50.074;8.436;2023-12-29T07:27:58;9.50;99.90
582;DHT22;277;50.074;8.436;2023-12-29T07:30:26;9.50;99.90
582;DHT22;277;50.074;8.436;2023-12-29T07:32:54;9.50;99.90
582;DHT22;277;50.074;8.436;2023-12-29T07:35:22;9.50;99.90
582;DHT22;277;50.074;8.436;2023-12-29T07:37:51;9.50;99.90
582;DHT22;277;50.074;8.436;2023-12-29T07:40:19;9.50;99.90
582;DHT22;277;50.074;8.436;2023-12-29T07:42:47;9.50;99.90
582;DHT22;277;50.074;8.436;2023-12-29T07:45:17;9.50;99.90
582;DHT22;277;50.074;8.436;2023-12-29T07:47:45;9.50;99.90
582;DHT22;277;50.074;8.436;2023-12-29T07:50:13;9.60;99.90
582;DHT22;277;50.074;8.436;2023-12-29T07:52:42;9.60;99.90
582;DHT22;277;50.074;8.436;2023-12-29T07:55:11;9.60;99.90
582;DHT22;277;50.074;8.436;2023-12-29T07:57:39;9.60;99.90
582;DHT22;277;50.074;8.436;2023-12-29T08:00:07;9.60;99.90
582;DHT22;277;50.074;8.436;2023-12-29T08:02:35;9.60;99.90
582;DHT22;277;50.074;8.436;2023-12-29T08:05:03;9.60;99.90
582;DHT22;277;50.074;8.436;2023-12-29T08:07:31;9.70;99.90
582;DHT22;277;50.074;8.436;2023-12-29T08:09:59;9.70;99.90
582;DHT22;277;50.074;8.436;2023-12-29T08:12:28;9.70;99.90
582;DHT22;277;50.074;8.436;2023-12-29T08:14:56;9.70;99.90
582;DHT22;277;50.074;8.436;2023-12-29T08:17:24;9.70;99.90
582;DHT22;277;50.074;8.436;2023-12-29T08:19:52;9.70;99.90
582;DHT22;277;50.074;8.436;2023-12-29T08:22:19;9.80;99.90
582;DHT22;277;50.074;8.436;2023-12-29T08:24:47;9.70;99.90
582;DHT22;277;50.074;8.436;2023-12-29T08:27:22;9.80;99.90
582;DHT22;277;50.074;8.436;2023-12-29T08:29:51;9.80;99.90
582;DHT22;277;50.074;8.436;2023-12-29T08:32:19;9.80;99.90
582;DHT22;277;50.074;8.436;2023-12-29T08:34:47;9.80;99.90
582;DHT22;277;50.074;8.436;2023-12-29T08:37:15;9.80;99.90
582;DHT22;277;50.074;8.436;2023-12-29T08:39:47;9.90;99.90
582;DHT22;277;50.074;8.436;2023-12-29T08:42:15;9.90;99.90
582;DHT22;277;50.074;8.436;2023-12-29T08:44:43;9.90;99.90
582;DHT22;277;50.074;8.436;2023-12-29T08:47:12;9.90;99.90
582;DHT22;277;50.074;8.436;2023-12-29T08:49:40;9.90;99.90
582;DHT22;277;50.074;8.436;2023-12-29T08:52:08;9.90;99.90
582;DHT22;277;50.074;8.436;2023-12-29T08:54:36;10.00;99.90
582;DHT22;277;50.074;8.436;2023-12-29T08:57:05;10.00;99.90
582;DHT22;277;50.074;8.436;2023-12-29T08:59:33;10.00;99.90
582;DHT22;277;50.074;8.436;2023-12-29T09:02:01;10.10;99.90
582;DHT22;277;50.074;8.436;2023-12-29T09:04:30;10.10;99.90
582;DHT22;277;50.074;8.436;2023-12-29T09:06:58;10.10;99.90
582;DHT22;277;50.074;8.436;2023-12-29T09:09:26;10.10;99.90
582;DHT22;277;50.074;8.436;2023-12-29T09:11:54;10.10;99.90
582;DHT22;277;50.074;8.436;2023-12-29T09:14:21;10.10;99.90
582;DHT22;277;50.074;8.436;2023-12-29T09:16:49;10.10;99.90
582;DHT22;277;50.074;8.436;2023-12-29T09:19:17;10.10;99.90
582;DHT22;277;50.074;8.436;2023-12-29T09:22:02;10.10;99.90
582;DHT22;277;50.074;8.436;2023-12-29T09:24:30;10.10;99.90
582;DHT22;277;50.074;8.436;2023-12-29T09:26:58;10.10;99.90
582;DHT22;277;50.074;8.436;2023-12-29T09:29:26;10.10;99.90
582;DHT22;277;50.074;8.436;2023-12-29T09:31:53;10.10;99.90
582;DHT22;277;50.074;8.436;2023-12-29T09:34:21;10.10;99.90
582;DHT22;277;50.074;8.436;2023-12-29T09:36:49;10.10;99.90
582;DHT22;277;50.074;8.436;2023-12-29T09:39:18;10.10;99.90
582;DHT22;277;50.074;8.436;2023-12-29T09:41:46;10.10;99.90
582;DHT22;277;50.074;8.436;2023-12-29T09:44:18;10.10;99.90
582;DHT22;277;50.074;8.436;2023-12-29T09:46:47;10.10;99.90
582;DHT22;277;50.074;8.436;2023-12-29T09:49:17;10.10;99.90
582;DHT22;277;50.074;8.436;2023-12-29T09:51:46;10.10;99.90
582;DHT22;277;50.074;8.436;2023-12-29T09:54:14;10.10;99.90
582;DHT22;277;50.074;8.436;2023-12-29T09:56:44;10.10;99.90
582;DHT22;277;50.074;8.436;2023-12-29T09:59:11;10.10;99.90
582;DHT22;277;50.074;8.436;2023-12-29T10:01:41;10.10;99.90
582;DHT22;277;50.074;8.436;2023-12-29T10:04:11;10.10;99.90
582;DHT22;277;50.074;8.436;2023-12-29T10:06:39;10.10;99.90
582;DHT22;277;50.074;8.436;2023-12-29T10:09:09;10.10;99.90
582;DHT22;277;50.074;8.436;2023-12-29T10:11:38;10.10;99.90
582;DHT22;277;50.074;8.436;2023-12-29T10:14:13;10.20;99.90
582;DHT22;277;50.074;8.436;2023-12-29T10:16:48;10.20;99.90
582;DHT22;277;50.074;8.436;2023-12-29T10:19:18;10.20;99.90
582;DHT22;277;50.074;8.436;2023-12-29T10:21:52;10.20;99.90
582;DHT22;277;50.074;8.436;2023-12-29T10:24:22;10.20;99.90
582;DHT22;277;50.074;8.436;2023-12-29T10:26:50;10.30;99.90
582;DHT22;277;50.074;8.436;2023-12-29T10:29:21;10.30;99.90
582;DHT22;277;50.074;8.436;2023-12-29T10:31:49;10.30;99.90
582;DHT22;277;50.074;8.436;2023-12-29T10:34:17;10.30;99.90
582;DHT22;277;50.074;8.436;2023-12-29T10:36:48;10.20;99.90
582;DHT22;277;50.074;8.436;2023-12-29T10:39:16;10.30;99.90
582;DHT22;277;50.074;8.436;2023-12-29T10:41:44;10.30;99.90
582;DHT22;277;50.074;8.436;2023-12-29T10:44:12;10.30;99.90
582;DHT22;277;50.074;8.436;2023-12-29T10:46:41;10.30;99.90
582;DHT22;277;50.074;8.436;2023-12-29T10:49:09;10.30;99.90
582;DHT22;277;50.074;8.436;2023-12-29T10:51:37;10.30;99.90
582;DHT22;277;50.074;8.436;2023-12-29T10:54:05;10.30;99.90
582;DHT22;277;50.074;8.436;2023-12-29T10:56:33;10.40;99.90
582;DHT22;277;50.074;8.436;2023-12-29T10:59:01;10.40;99.90
582;DHT22;277;50.074;8.436;2023-12-29T11:01:30;10.40;99.90
582;DHT22;277;50.074;8.436;2023-12-29T11:04:00;10.40;99.90
582;DHT22;277;50.074;8.436;2023-12-29T11:06:29;10.40;99.90
582;DHT22;277;50.074;8.436;2023-12-29T11:08:57;10.50;99.90
582;DHT22;277;50.074;8.436;2023-12-29T11:11:24;10.40;99.90
582;DHT22;277;50.074;8.436;2023-12-29T11:13:53;10.40;99.90
582;DHT22;277;50.074;8.436;2023-12-29T11:16:21;10.50;99.90
582;DHT22;277;50.074;8.436;2023-12-29T11:18:49;10.50;99.90
582;DHT22;277;50.074;8.436;2023-12-29T11:21:20;10.50;99.90
582;DHT22;277;50.074;8.436;2023-12-29T11:23:49;10.50;99.90
582;DHT22;277;50.074;8.436;2023-12-29T11:26:17;10.40;99.90
582;DHT22;277;50.074;8.436;2023-12-29T11:28:46;10.40;99.90
582;DHT22;277;50.074;8.436;2023-12-29T11:31:14;10.50;99.90
582;DHT22;277;50.074;8.436;2023-12-29T11:33:43;10.50;99.90
582;DHT22;277;50.074;8.436;2023-12-29T11:36:15;10.50;99.90
582;DHT22;277;50.074;8.436;2023-12-29T11:39:02;10.50;99.90
582;DHT22;277;50.074;8.436;2023-12-29T11:41:33;10.50;99.90
582;DHT22;277;50.074;8.436;2023-12-29T11:44:04;10.50;99.90
582;DHT22;277;50.074;8.436;2023-12-29T11:46:33;10.50;99.90
582;DHT22;277;50.074;8.436;2023-12-29T11:49:01;10.50;99.90
582;DHT22;277;50.074;8.436;2023-12-29T11:51:31;10.50;99.90
582;DHT22;277;50.074;8.436;2023-12-29T11:54:02;10.50;99.90
582;DHT22;277;50.074;8.436;2023-12-29T11:56:33;10.50;99.90
582;DHT22;277;50.074;8.436;2023-12-29T11:59:14;10.50;99.90
582;DHT22;277;50.074;8.436;2023-12-29T12:01:42;10.50;99.90
582;DHT22;277;50.074;8.436;2023-12-29T12:06:58;10.50;99.90
582;DHT22;277;50.074;8.436;2023-12-29T12:09:27;10.50;99.90
582;DHT22;277;50.074;8.436;2023-12-29T12:11:55;10.50;99.90
582;DHT22;277;50.074;8.436;2023-12-29T12:17:09;10.50;99.90
582;DHT22;277;50.074;8.436;2023-12-29T12:19:37;10.60;99.90
582;DHT22;277;50.074;8.436;2023-12-29T12:22:05;10.60;99.90
582;DHT22;277;50.074;8.436;2023-12-29T12:24:37;10.60;99.90
582;DHT22;277;50.074;8.436;2023-12-29T12:27:09;10.70;99.90
582;DHT22;277;50.074;8.436;2023-12-29T12:29:37;10.70;99.90
582;DHT22;277;50.074;8.436;2023-12-29T12:32:05;10.80;99.90
582;DHT22;277;50.074;8.436;2023-12-29T12:34:36;10.80;99.90
582;DHT22;277;50.074;8.436;2023-12-29T12:37:04;10.90;99.90
582;DHT22;277;50.074;8.436;2023-12-29T12:39:41;11.00;99.90
582;DHT22;277;50.074;8.436;2023-12-29T12:42:08;11.10;99.90
582;DHT22;277;50.074;8.436;2023-12-29T12:44:37;11.10;99.90
582;DHT22;277;50.074;8.436;2023-12-29T12:47:06;11.10;99.90
582;DHT22;277;50.074;8.436;2023-12-29T12:49:35;11.10;99.90
582;DHT22;277;50.074;8.436;2023-12-29T12:52:03;11.00;99.90
582;DHT22;277;50.074;8.436;2023-12-29T12:54:31;11.10;99.90
582;DHT22;277;50.074;8.436;2023-12-29T12:57:03;11.10;99.90
582;DHT22;277;50.074;8.436;2023-12-29T12:59:30;11.10;99.90
582;DHT22;277;50.074;8.436;2023-12-29T13:02:00;11.00;99.90
582;DHT22;277;50.074;8.436;2023-12-29T13:04:30;11.00;99.90
582;DHT22;277;50.074;8.436;2023-12-29T13:06:58;11.00;99.90
582;DHT22;277;50.074;8.436;2023-12-29T13:09:26;11.00;99.90
582;DHT22;277;50.074;8.436;2023-12-29T13:12:08;11.00;99.90
582;DHT22;277;50.074;8.436;2023-12-29T13:14:35;11.00;99.90
582;DHT22;277;50.074;8.436;2023-12-29T13:17:07;11.00;99.90
582;DHT22;277;50.074;8.436;2023-12-29T13:19:35;11.00;99.90
582;DHT22;277;50.074;8.436;2023-12-29T13:22:05;11.00;99.90
582;DHT22;277;50.074;8.436;2023-12-29T13:24:34;11.10;99.90
582;DHT22;277;50.074;8.436;2023-12-29T13:27:04;11.00;99.90
582;DHT22;277;50.074;8.436;2023-12-29T13:29:34;11.00;99.90
582;DHT22;277;50.074;8.436;2023-12-29T13:32:03;11.10;99.90
582;DHT22;277;50.074;8.436;2023-12-29T13:34:33;11.00;99.90
582;DHT22;277;50.074;8.436;2023-12-29T13:37:03;11.00;99.90
582;DHT22;277;50.074;8.436;2023-12-29T13:39:35;11.00;99.90
582;DHT22;277;50.074;8.436;2023-12-29T13:42:04;11.00;99.90
582;DHT22;277;50.074;8.436;2023-12-29T13:44:34;11.00;99.90
582;DHT22;277;50.074;8.436;2023-12-29T13:47:02;11.10;99.90
582;DHT22;277;50.074;8.436;2023-12-29T13:49:31;11.20;99.90
582;DHT22;277;50.074;8.436;2023-12-29T13:52:03;11.10;99.90
582;DHT22;277;50.074;8.436;2023-12-29T13:54:31;11.10;99.90
582;DHT22;277;50.074;8.436;2023-12-29T13:57:08;11.00;99.90
582;DHT22;277;50.074;8.436;2023-12-29T13:59:37;11.00;99.90
582;DHT22;277;50.074;8.436;2023-12-29T14:02:20;11.00;99.90
582;DHT22;277;50.074;8.436;2023-12-29T14:04:48;11.00;99.90
582;DHT22;277;50.074;8.436;2023-12-29T14:07:17;11.00;99.90
582;DHT22;277;50.074;8.436;2023-12-29T14:09:47;10.90;99.90
582;DHT22;277;50.074;8.436;2023-12-29T14:12:20;10.90;99.90
582;DHT22;277;50.074;8.436;2023-12-29T14:14:53;10.90;99.90
582;DHT22;277;50.074;8.436;2023-12-29T14:17:21;10.90;99.90
582;DHT22;277;50.074;8.436;2023-12-29T14:19:49;10.90;99.90
582;DHT22;277;50.074;8.436;2023-12-29T14:22:21;10.90;99.90
582;DHT22;277;50.074;8.436;2023-12-29T14:24:58;10.90;99.90
582;DHT22;277;50.074;8.436;2023-12-29T14:27:27;10.80;99.90
582;DHT22;277;50.074;8.436;2023-12-29T14:29:56;10.80;99.90
582;DHT22;277;50.074;8.436;2023-12-29T14:32:39;10.80;99.90
582;DHT22;277;50.074;8.436;2023-12-29T14:35:09;10.80;99.90
582;DHT22;277;50.074;8.436;2023-12-29T14:37:37;10.80;99.90
582;DHT22;277;50.074;8.436;2023-12-29T14:40:05;10.70;99.90
582;DHT22;277;50.074;8.436;2023-12-29T14:42:33;10.60;99.90
582;DHT22;277;50.074;8.436;2023-12-29T14:45:03;10.50;99.90
582;DHT22;277;50.074;8.436;2023-12-29T14:47:31;10.50;99.90
582;DHT22;277;50.074;8.436;2023-12-29T14:49:59;10.50;99.90
582;DHT22;277;50.074;8.436;2023-12-29T14:52:27;10.50;99.90
582;DHT22;277;50.074;8.436;2023-12-29T14:54:56;10.40;99.90
582;DHT22;277;50.074;8.436;2023-12-29T14:57:23;10.50;99.90
582;DHT22;277;50.074;8.436;2023-12-29T14:59:51;10.50;99.90
582;DHT22;277;50.074;8.436;2023-12-29T15:02:20;10.50;99.90
582;DHT22;277;50.074;8.436;2023-12-29T15:05:01;10.40;99.90
582;DHT22;277;50.074;8.436;2023-12-29T15:07:29;10.40;99.90
582;DHT22;277;50.074;8.436;2023-12-29T15:09:57;10.40;99.90
582;DHT22;277;50.074;8.436;2023-12-29T15:12:25;10.40;99.90
582;DHT22;277;50.074;8.436;2023-12-29T15:14:52;10.40;99.90
582;DHT22;277;50.074;8.436;2023-12-29T15:17:22;10.40;99.90
582;DHT22;277;50.074;8.436;2023-12-29T15:19:49;10.40;99.90
582;DHT22;277;50.074;8.436;2023-12-29T15:22:17;10.50;99.90
582;DHT22;277;50.074;8.436;2023-12-29T15:24:46;10.50;99.90
582;DHT22;277;50.074;8.436;2023-12-29T15:27:13;10.50;99.90
582;DHT22;277;50.074;8.436;2023-12-29T15:29:41;10.50;99.90
582;DHT22;277;50.074;8.436;2023-12-29T15:32:09;10.50;99.90
582;DHT22;277;50.074;8.436;2023-12-29T15:34:38;10.50;99.90
582;DHT22;277;50.074;8.436;2023-12-29T15:37:06;10.50;99.90
582;DHT22;277;50.074;8.436;2023-12-29T15:39:34;10.50;99.90
582;DHT22;277;50.074;8.436;2023-12-29T15:42:03;10.50;99.90
582;DHT22;277;50.074;8.436;2023-12-29T15:44:30;10.50;99.90
582;DHT22;277;50.074;8.436;2023-12-29T15:46:58;10.50;99.90
582;DHT22;277;50.074;8.436;2023-12-29T15:49:26;10.40;99.90
582;DHT22;277;50.074;8.436;2023-12-29T15:51:55;10.50;99.90
582;DHT22;277;50.074;8.436;2023-12-29T15:54:23;10.40;99.90
582;DHT22;277;50.074;8.436;2023-12-29T15:56:51;10.40;99.90
582;DHT22;277;50.074;8.436;2023-12-29T15:59:18;10.40;99.90
582;DHT22;277;50.074;8.436;2023-12-29T16:01:46;10.40;99.90
582;DHT22;277;50.074;8.436;2023-12-29T16:04:14;10.40;99.90
582;DHT22;277;50.074;8.436;2023-12-29T16:06:42;10.40;99.90
582;DHT22;277;50.074;8.436;2023-12-29T16:09:11;10.40;99.90
582;DHT22;277;50.074;8.436;2023-12-29T16:11:39;10.30;99.90
582;DHT22;277;50.074;8.436;2023-12-29T16:14:07;10.30;99.90
582;DHT22;277;50.074;8.436;2023-12-29T16:16:37;10.20;99.90
582;DHT22;277;50.074;8.436;2023-12-29T16:19:05;10.20;99.90
582;DHT22;277;50.074;8.436;2023-12-29T16:21:34;10.10;99.90
582;DHT22;277;50.074;8.436;2023-12-29T16:24:04;10.10;99.90
582;DHT22;277;50.074;8.436;2023-12-29T16:26:34;10.10;99.90
582;DHT22;277;50.074;8.436;2023-12-29T16:29:12;10.00;99.90
582;DHT22;277;50.074;8.436;2023-12-29T16:31:40;10.00;99.90
582;DHT22;277;50.074;8.436;2023-12-29T16:34:08;10.10;99.90
582;DHT22;277;50.074;8.436;2023-12-29T16:36:36;10.00;99.90
582;DHT22;277;50.074;8.436;2023-12-29T16:39:04;10.00;99.90
582;DHT22;277;50.074;8.436;2023-12-29T16:41:34;10.10;99.90
582;DHT22;277;50.074;8.436;2023-12-29T16:44:02;10.10;99.90
582;DHT22;277;50.074;8.436;2023-12-29T16:46:31;10.00;99.90
582;DHT22;277;50.074;8.436;2023-12-29T16:48:59;10.00;99.90
582;DHT22;277;50.074;8.436;2023-12-29T16:51:29;10.00;99.90
582;DHT22;277;50.074;8.436;2023-12-29T16:53:57;10.00;99.90
582;DHT22;277;50.074;8.436;2023-12-29T16:56:24;10.00;99.90
582;DHT22;277;50.074;8.436;2023-12-29T16:58:54;10.10;99.90
582;DHT22;277;50.074;8.436;2023-12-29T17:01:21;10.00;99.90